sensor_id;sensor_type;location;lat;lon;timestamp;P1;durP1;ratioP1;P2;durP2;ratioP2
26594;SDS011;14238;49.496;8.154;2022-08-23T00:01:28;5.30;;;4.80;;
26594;SDS011;14238;49.496;8.154;2022-08-23T00:03:56;5.23;;;4.73;;
26594;SDS011;14238;49.496;8.154;2022-08-23T00:06:25;5.40;;;4.10;;
26594;SDS011;14238;49.496;8.154;2022-08-23T00:08:54;5.30;;;4.53;;
26594;SDS011;14238;49.496;8.154;2022-08-23T00:11:24;4.60;;;4.30;;
26594;SDS011;14238;49.496;8.154;2022-08-23T00:13:56;4.97;;;4.53;;
26594;SDS011;14238;49.496;8.154;2022-08-23T00:16:23;4.50;;;4.20;;
26594;SDS011;14238;49.496;8.154;2022-08-23T00:18:49;6.87;;;4.13;;
26594;SDS011;14238;49.496;8.154;2022-08-23T00:21:14;4.70;;;4.40;;
26594;SDS011;14238;49.496;8.154;2022-08-23T00:23:40;6.03;;;4.73;;
26594;SDS011;14238;49.496;8.154;2022-08-23T00:26:06;4.27;;;3.93;;
26594;SDS011;14238;49.496;8.154;2022-08-23T00:28:31;4.47;;;4.17;;
26594;SDS011;14238;49.496;8.154;2022-08-23T00:30:57;7.10;;;4.57;;
26594;SDS011;14238;49.496;8.154;2022-08-23T00:33:23;4.57;;;4.10;;
26594;SDS011;14238;49.496;8.154;2022-08-23T00:35:49;5.13;;;4.70;;
26594;SDS011;14238;49.496;8.154;2022-08-23T00:38:15;4.53;;;4.13;;
26594;SDS011;14238;49.496;8.154;2022-08-23T00:40:42;6.23;;;4.70;;
26594;SDS011;14238;49.496;8.154;2022-08-23T00:43:09;4.73;;;4.43;;
26594;SDS011;14238;49.496;8.154;2022-08-23T00:46:19;6.37;;;5.67;;
26594;SDS011;14238;49.496;8.154;2022-08-23T00:49:10;5.50;;;5.10;;
26594;SDS011;14238;49.496;8.154;2022-08-23T00:51:39;4.90;;;4.60;;
26594;SDS011;14238;49.496;8.154;2022-08-23T00:54:22;4.57;;;4.17;;
26594;SDS011;14238;49.496;8.154;2022-08-23T00:56:51;5.07;;;4.67;;
26594;SDS011;14238;49.496;8.154;2022-08-23T00:59:18;4.57;;;4.23;;
26594;SDS011;14238;49.496;8.154;2022-08-23T01:01:44;5.43;;;4.30;;
26594;SDS011;14238;49.496;8.154;2022-08-23T01:04:11;4.90;;;4.50;;
26594;SDS011;14238;49.496;8.154;2022-08-23T01:06:43;4.53;;;4.10;;
26594;SDS011;14238;49.496;8.154;2022-08-23T01:09:36;5.90;;;4.80;;
26594;SDS011;14238;49.496;8.154;2022-08-23T01:12:06;4.73;;;4.33;;
26594;SDS011;14238;49.496;8.154;2022-08-23T01:14:49;5.33;;;4.57;;
26594;SDS011;14238;49.496;8.154;2022-08-23T01:17:21;4.53;;;4.13;;
26594;SDS011;14238;49.496;8.154;2022-08-23T01:19:51;4.50;;;4.10;;
26594;SDS011;14238;49.496;8.154;2022-08-23T01:22:23;4.73;;;4.40;;
26594;SDS011;14238;49.496;8.154;2022-08-23T01:24:55;3.80;;;3.50;;
26594;SDS011;14238;49.496;8.154;2022-08-23T01:27:21;4.93;;;4.63;;
26594;SDS011;14238;49.496;8.154;2022-08-23T01:29:47;3.83;;;3.63;;
26594;SDS011;14238;49.496;8.154;2022-08-23T01:32:12;4.93;;;4.47;;
26594;SDS011;14238;49.496;8.154;2022-08-23T01:34:38;4.83;;;4.50;;
26594;SDS011;14238;49.496;8.154;2022-08-23T01:37:05;4.97;;;4.50;;
26594;SDS011;14238;49.496;8.154;2022-08-23T01:39:32;4.57;;;4.07;;
26594;SDS011;14238;49.496;8.154;2022-08-23T01:41:58;4.47;;;4.07;;
26594;SDS011;14238;49.496;8.154;2022-08-23T01:44:24;4.93;;;4.63;;
26594;SDS011;14238;49.496;8.154;2022-08-23T01:46:50;4.33;;;4.03;;
26594;SDS011;14238;49.496;8.154;2022-08-23T01:49:16;5.50;;;5.10;;
26594;SDS011;14238;49.496;8.154;2022-08-23T01:51:42;5.43;;;4.70;;
26594;SDS011;14238;49.496;8.154;2022-08-23T01:54:08;5.80;;;5.20;;
26594;SDS011;14238;49.496;8.154;2022-08-23T01:56:34;4.63;;;4.33;;
26594;SDS011;14238;49.496;8.154;2022-08-23T01:59:01;4.07;;;3.87;;
26594;SDS011;14238;49.496;8.154;2022-08-23T02:01:27;4.90;;;4.50;;
26594;SDS011;14238;49.496;8.154;2022-08-23T02:03:53;4.80;;;4.47;;
26594;SDS011;14238;49.496;8.154;2022-08-23T02:06:19;4.90;;;4.50;;
26594;SDS011;14238;49.496;8.154;2022-08-23T02:08:45;4.70;;;4.30;;
26594;SDS011;14238;49.496;8.154;2022-08-23T02:11:28;5.47;;;5.13;;
26594;SDS011;14238;49.496;8.154;2022-08-23T02:14:00;4.87;;;4.47;;
26594;SDS011;14238;49.496;8.154;2022-08-23T02:16:31;4.60;;;4.30;;
26594;SDS011;14238;49.496;8.154;2022-08-23T02:18:59;7.20;;;4.70;;
26594;SDS011;14238;49.496;8.154;2022-08-23T02:21:28;5.10;;;4.80;;
26594;SDS011;14238;49.496;8.154;2022-08-23T02:23:58;5.23;;;4.83;;
26594;SDS011;14238;49.496;8.154;2022-08-23T02:26:24;5.60;;;4.70;;
26594;SDS011;14238;49.496;8.154;2022-08-23T02:28:50;5.80;;;5.13;;
26594;SDS011;14238;49.496;8.154;2022-08-23T02:31:17;5.87;;;5.30;;
26594;SDS011;14238;49.496;8.154;2022-08-23T02:33:44;5.60;;;5.10;;
26594;SDS011;14238;49.496;8.154;2022-08-23T02:36:09;6.47;;;5.83;;
26594;SDS011;14238;49.496;8.154;2022-08-23T02:38:36;5.90;;;5.50;;
26594;SDS011;14238;49.496;8.154;2022-08-23T02:41:01;6.03;;;5.33;;
26594;SDS011;14238;49.496;8.154;2022-08-23T02:43:27;5.17;;;4.67;;
26594;SDS011;14238;49.496;8.154;2022-08-23T02:45:52;4.97;;;4.60;;
26594;SDS011;14238;49.496;8.154;2022-08-23T02:48:18;5.10;;;4.80;;
26594;SDS011;14238;49.496;8.154;2022-08-23T02:50:44;6.20;;;5.80;;
26594;SDS011;14238;49.496;8.154;2022-08-23T02:53:10;5.60;;;5.20;;
26594;SDS011;14238;49.496;8.154;2022-08-23T02:55:36;6.00;;;5.50;;
26594;SDS011;14238;49.496;8.154;2022-08-23T02:58:02;6.60;;;6.00;;
26594;SDS011;14238;49.496;8.154;2022-08-23T03:00:29;6.00;;;5.50;;
26594;SDS011;14238;49.496;8.154;2022-08-23T03:02:55;6.00;;;5.40;;
26594;SDS011;14238;49.496;8.154;2022-08-23T03:05:20;5.87;;;5.43;;
26594;SDS011;14238;49.496;8.154;2022-08-23T03:07:46;5.50;;;5.10;;
26594;SDS011;14238;49.496;8.154;2022-08-23T03:10:12;5.57;;;5.17;;
26594;SDS011;14238;49.496;8.154;2022-08-23T03:12:40;5.30;;;4.90;;
26594;SDS011;14238;49.496;8.154;2022-08-23T03:15:06;5.00;;;4.70;;
26594;SDS011;14238;49.496;8.154;2022-08-23T03:17:32;5.37;;;5.03;;
26594;SDS011;14238;49.496;8.154;2022-08-23T03:19:57;5.90;;;5.40;;
26594;SDS011;14238;49.496;8.154;2022-08-23T03:22:23;5.43;;;5.07;;
26594;SDS011;14238;49.496;8.154;2022-08-23T03:24:48;5.77;;;5.37;;
26594;SDS011;14238;49.496;8.154;2022-08-23T03:27:15;5.30;;;4.90;;
26594;SDS011;14238;49.496;8.154;2022-08-23T03:29:40;5.83;;;5.43;;
26594;SDS011;14238;49.496;8.154;2022-08-23T03:32:06;6.37;;;5.97;;
26594;SDS011;14238;49.496;8.154;2022-08-23T03:34:31;7.40;;;6.90;;
26594;SDS011;14238;49.496;8.154;2022-08-23T03:36:57;5.83;;;4.97;;
26594;SDS011;14238;49.496;8.154;2022-08-23T03:39:23;5.40;;;5.00;;
26594;SDS011;14238;49.496;8.154;2022-08-23T03:41:49;6.07;;;5.47;;
26594;SDS011;14238;49.496;8.154;2022-08-23T03:44:14;6.23;;;5.73;;
26594;SDS011;14238;49.496;8.154;2022-08-23T03:46:40;5.50;;;5.10;;
26594;SDS011;14238;49.496;8.154;2022-08-23T03:49:06;6.33;;;5.80;;
26594;SDS011;14238;49.496;8.154;2022-08-23T03:51:32;5.97;;;5.60;;
26594;SDS011;14238;49.496;8.154;2022-08-23T03:53:58;6.00;;;5.60;;
26594;SDS011;14238;49.496;8.154;2022-08-23T03:56:35;6.83;;;6.33;;
26594;SDS011;14238;49.496;8.154;2022-08-23T03:59:06;6.20;;;5.70;;
26594;SDS011;14238;49.496;8.154;2022-08-23T04:01:33;6.10;;;5.70;;
26594;SDS011;14238;49.496;8.154;2022-08-23T04:04:00;6.37;;;5.80;;
26594;SDS011;14238;49.496;8.154;2022-08-23T04:06:26;6.50;;;6.10;;
26594;SDS011;14238;49.496;8.154;2022-08-23T04:08:52;6.17;;;5.67;;
26594;SDS011;14238;49.496;8.154;2022-08-23T04:11:18;6.17;;;5.67;;
26594;SDS011;14238;49.496;8.154;2022-08-23T04:13:44;5.97;;;5.33;;
26594;SDS011;14238;49.496;8.154;2022-08-23T04:16:10;5.57;;;5.10;;
26594;SDS011;14238;49.496;8.154;2022-08-23T04:18:36;5.37;;;4.97;;
26594;SDS011;14238;49.496;8.154;2022-08-23T04:21:03;5.60;;;5.20;;
26594;SDS011;14238;49.496;8.154;2022-08-23T04:23:36;5.53;;;5.13;;
26594;SDS011;14238;49.496;8.154;2022-08-23T04:26:03;5.70;;;5.30;;
26594;SDS011;14238;49.496;8.154;2022-08-23T04:28:30;5.67;;;5.23;;
26594;SDS011;14238;49.496;8.154;2022-08-23T04:30:56;6.17;;;5.57;;
26594;SDS011;14238;49.496;8.154;2022-08-23T04:33:24;6.33;;;5.93;;
26594;SDS011;14238;49.496;8.154;2022-08-23T04:35:50;5.90;;;5.40;;
26594;SDS011;14238;49.496;8.154;2022-08-23T04:38:16;6.63;;;5.90;;
26594;SDS011;14238;49.496;8.154;2022-08-23T04:40:41;6.10;;;5.70;;
26594;SDS011;14238;49.496;8.154;2022-08-23T04:43:26;6.30;;;5.80;;
26594;SDS011;14238;49.496;8.154;2022-08-23T04:45:51;6.17;;;5.77;;
26594;SDS011;14238;49.496;8.154;2022-08-23T04:48:17;6.13;;;5.43;;
26594;SDS011;14238;49.496;8.154;2022-08-23T04:50:43;6.33;;;5.93;;
26594;SDS011;14238;49.496;8.154;2022-08-23T04:53:08;6.50;;;5.87;;
26594;SDS011;14238;49.496;8.154;2022-08-23T04:55:35;6.07;;;5.40;;
26594;SDS011;14238;49.496;8.154;2022-08-23T04:58:02;6.03;;;5.53;;
26594;SDS011;14238;49.496;8.154;2022-08-23T05:00:28;6.60;;;6.10;;
26594;SDS011;14238;49.496;8.154;2022-08-23T05:02:53;6.43;;;5.83;;
26594;SDS011;14238;49.496;8.154;2022-08-23T05:05:19;5.57;;;4.97;;
26594;SDS011;14238;49.496;8.154;2022-08-23T05:07:44;6.73;;;5.40;;
26594;SDS011;14238;49.496;8.154;2022-08-23T05:10:11;5.90;;;5.40;;
26594;SDS011;14238;49.496;8.154;2022-08-23T05:12:39;6.43;;;5.97;;
26594;SDS011;14238;49.496;8.154;2022-08-23T05:15:06;6.97;;;6.23;;
26594;SDS011;14238;49.496;8.154;2022-08-23T05:17:33;6.20;;;5.60;;
26594;SDS011;14238;49.496;8.154;2022-08-23T05:19:59;5.47;;;5.10;;
26594;SDS011;14238;49.496;8.154;2022-08-23T05:22:25;6.90;;;5.90;;
26594;SDS011;14238;49.496;8.154;2022-08-23T05:24:51;5.90;;;5.50;;
26594;SDS011;14238;49.496;8.154;2022-08-23T05:27:16;6.73;;;6.03;;
26594;SDS011;14238;49.496;8.154;2022-08-23T05:29:42;6.93;;;6.43;;
26594;SDS011;14238;49.496;8.154;2022-08-23T05:32:07;6.13;;;5.53;;
26594;SDS011;14238;49.496;8.154;2022-08-23T05:34:34;6.50;;;6.10;;
26594;SDS011;14238;49.496;8.154;2022-08-23T05:37:01;6.50;;;6.00;;
26594;SDS011;14238;49.496;8.154;2022-08-23T05:39:27;6.53;;;6.13;;
26594;SDS011;14238;49.496;8.154;2022-08-23T05:41:52;5.37;;;4.87;;
26594;SDS011;14238;49.496;8.154;2022-08-23T05:44:18;4.97;;;4.67;;
26594;SDS011;14238;49.496;8.154;2022-08-23T05:46:43;6.00;;;5.60;;
26594;SDS011;14238;49.496;8.154;2022-08-23T05:49:09;6.13;;;5.53;;
26594;SDS011;14238;49.496;8.154;2022-08-23T05:51:35;5.40;;;5.00;;
26594;SDS011;14238;49.496;8.154;2022-08-23T05:54:02;5.60;;;5.30;;
26594;SDS011;14238;49.496;8.154;2022-08-23T05:56:31;5.90;;;5.50;;
26594;SDS011;14238;49.496;8.154;2022-08-23T05:59:00;5.03;;;4.63;;
26594;SDS011;14238;49.496;8.154;2022-08-23T06:01:29;4.93;;;4.63;;
26594;SDS011;14238;49.496;8.154;2022-08-23T06:03:57;5.83;;;4.83;;
26594;SDS011;14238;49.496;8.154;2022-08-23T06:06:23;4.53;;;4.27;;
26594;SDS011;14238;49.496;8.154;2022-08-23T06:08:48;5.30;;;4.60;;
26594;SDS011;14238;49.496;8.154;2022-08-23T06:11:15;4.60;;;4.30;;
26594;SDS011;14238;49.496;8.154;2022-08-23T06:13:44;5.40;;;4.73;;
26594;SDS011;14238;49.496;8.154;2022-08-23T06:16:22;5.13;;;4.63;;
26594;SDS011;14238;49.496;8.154;2022-08-23T06:18:50;5.00;;;4.30;;
26594;SDS011;14238;49.496;8.154;2022-08-23T06:21:17;7.40;;;4.83;;
26594;SDS011;14238;49.496;8.154;2022-08-23T06:23:43;5.60;;;5.20;;
26594;SDS011;14238;49.496;8.154;2022-08-23T06:26:12;4.70;;;4.40;;
26594;SDS011;14238;49.496;8.154;2022-08-23T06:28:41;4.83;;;4.53;;
26594;SDS011;14238;49.496;8.154;2022-08-23T06:31:08;4.77;;;4.37;;
26594;SDS011;14238;49.496;8.154;2022-08-23T06:33:34;4.60;;;4.30;;
26594;SDS011;14238;49.496;8.154;2022-08-23T06:36:05;4.70;;;4.40;;
26594;SDS011;14238;49.496;8.154;2022-08-23T06:38:33;4.93;;;4.43;;
26594;SDS011;14238;49.496;8.154;2022-08-23T06:41:03;4.77;;;4.47;;
26594;SDS011;14238;49.496;8.154;2022-08-23T06:43:35;4.83;;;4.53;;
26594;SDS011;14238;49.496;8.154;2022-08-23T06:48:35;4.70;;;4.27;;
26594;SDS011;14238;49.496;8.154;2022-08-23T06:51:01;4.90;;;4.57;;
26594;SDS011;14238;49.496;8.154;2022-08-23T06:53:27;5.90;;;4.17;;
26594;SDS011;14238;49.496;8.154;2022-08-23T06:55:52;4.20;;;4.00;;
26594;SDS011;14238;49.496;8.154;2022-08-23T06:58:18;4.37;;;3.97;;
26594;SDS011;14238;49.496;8.154;2022-08-23T07:00:44;5.20;;;4.50;;
26594;SDS011;14238;49.496;8.154;2022-08-23T07:03:10;7.10;;;4.80;;
26594;SDS011;14238;49.496;8.154;2022-08-23T07:05:35;6.67;;;4.27;;
26594;SDS011;14238;49.496;8.154;2022-08-23T07:08:01;5.00;;;4.47;;
26594;SDS011;14238;49.496;8.154;2022-08-23T07:10:27;5.00;;;4.70;;
26594;SDS011;14238;49.496;8.154;2022-08-23T07:12:52;5.10;;;4.60;;
26594;SDS011;14238;49.496;8.154;2022-08-23T07:15:18;4.50;;;4.20;;
26594;SDS011;14238;49.496;8.154;2022-08-23T07:17:43;4.60;;;4.40;;
26594;SDS011;14238;49.496;8.154;2022-08-23T07:20:09;4.50;;;4.20;;
26594;SDS011;14238;49.496;8.154;2022-08-23T07:22:34;4.27;;;3.97;;
26594;SDS011;14238;49.496;8.154;2022-08-23T07:25:00;5.63;;;3.93;;
26594;SDS011;14238;49.496;8.154;2022-08-23T07:27:27;6.53;;;4.37;;
26594;SDS011;14238;49.496;8.154;2022-08-23T07:29:52;4.13;;;3.80;;
26594;SDS011;14238;49.496;8.154;2022-08-23T07:32:18;4.40;;;4.10;;
26594;SDS011;14238;49.496;8.154;2022-08-23T07:34:44;4.20;;;3.80;;
26594;SDS011;14238;49.496;8.154;2022-08-23T07:37:09;9.20;;;4.20;;
26594;SDS011;14238;49.496;8.154;2022-08-23T07:39:35;4.80;;;4.30;;
26594;SDS011;14238;49.496;8.154;2022-08-23T07:42:01;7.03;;;4.20;;
26594;SDS011;14238;49.496;8.154;2022-08-23T07:44:28;4.70;;;4.33;;
26594;SDS011;14238;49.496;8.154;2022-08-23T07:46:54;6.83;;;4.70;;
26594;SDS011;14238;49.496;8.154;2022-08-23T07:49:20;4.17;;;3.90;;
26594;SDS011;14238;49.496;8.154;2022-08-23T07:51:47;6.10;;;4.90;;
26594;SDS011;14238;49.496;8.154;2022-08-23T07:54:14;4.30;;;3.97;;
26594;SDS011;14238;49.496;8.154;2022-08-23T07:56:42;5.23;;;4.73;;
26594;SDS011;14238;49.496;8.154;2022-08-23T07:59:08;5.77;;;4.23;;
26594;SDS011;14238;49.496;8.154;2022-08-23T08:01:35;5.17;;;4.00;;
26594;SDS011;14238;49.496;8.154;2022-08-23T08:04:02;5.00;;;4.50;;
26594;SDS011;14238;49.496;8.154;2022-08-23T08:08:57;6.43;;;4.57;;
26594;SDS011;14238;49.496;8.154;2022-08-23T08:11:24;4.97;;;4.17;;
26594;SDS011;14238;49.496;8.154;2022-08-23T08:13:52;5.00;;;4.60;;
26594;SDS011;14238;49.496;8.154;2022-08-23T08:16:20;4.77;;;4.37;;
26594;SDS011;14238;49.496;8.154;2022-08-23T08:18:52;4.30;;;4.00;;
26594;SDS011;14238;49.496;8.154;2022-08-23T08:21:19;4.20;;;3.83;;
26594;SDS011;14238;49.496;8.154;2022-08-23T08:23:45;5.17;;;4.50;;
26594;SDS011;14238;49.496;8.154;2022-08-23T08:26:11;4.03;;;3.83;;
26594;SDS011;14238;49.496;8.154;2022-08-23T08:28:37;4.83;;;4.40;;
26594;SDS011;14238;49.496;8.154;2022-08-23T08:31:04;4.10;;;3.73;;
26594;SDS011;14238;49.496;8.154;2022-08-23T08:33:30;5.10;;;4.70;;
26594;SDS011;14238;49.496;8.154;2022-08-23T08:35:56;4.40;;;4.10;;
26594;SDS011;14238;49.496;8.154;2022-08-23T08:38:22;5.70;;;4.47;;
26594;SDS011;14238;49.496;8.154;2022-08-23T08:40:52;3.93;;;3.73;;
26594;SDS011;14238;49.496;8.154;2022-08-23T08:46:23;4.53;;;4.10;;
26594;SDS011;14238;49.496;8.154;2022-08-23T08:49:05;5.87;;;4.47;;
26594;SDS011;14238;49.496;8.154;2022-08-23T08:51:52;6.83;;;4.60;;
26594;SDS011;14238;49.496;8.154;2022-08-23T08:54:23;4.97;;;4.47;;
26594;SDS011;14238;49.496;8.154;2022-08-23T08:56:52;4.97;;;4.57;;
26594;SDS011;14238;49.496;8.154;2022-08-23T08:59:21;6.33;;;4.77;;
26594;SDS011;14238;49.496;8.154;2022-08-23T09:01:52;5.10;;;4.50;;
26594;SDS011;14238;49.496;8.154;2022-08-23T09:04:18;4.83;;;4.47;;
26594;SDS011;14238;49.496;8.154;2022-08-23T09:15:19;6.43;;;5.03;;
26594;SDS011;14238;49.496;8.154;2022-08-23T09:17:53;5.03;;;4.63;;
26594;SDS011;14238;49.496;8.154;2022-08-23T09:20:21;6.17;;;5.27;;
26594;SDS011;14238;49.496;8.154;2022-08-23T09:22:49;4.87;;;4.47;;
26594;SDS011;14238;49.496;8.154;2022-08-23T09:25:18;5.20;;;4.70;;
26594;SDS011;14238;49.496;8.154;2022-08-23T09:27:44;6.37;;;4.50;;
26594;SDS011;14238;49.496;8.154;2022-08-23T09:30:11;5.00;;;4.60;;
26594;SDS011;14238;49.496;8.154;2022-08-23T09:32:39;5.40;;;4.90;;
26594;SDS011;14238;49.496;8.154;2022-08-23T09:35:13;4.90;;;4.60;;
26594;SDS011;14238;49.496;8.154;2022-08-23T09:37:44;6.43;;;5.80;;
26594;SDS011;14238;49.496;8.154;2022-08-23T09:40:28;4.97;;;4.50;;
26594;SDS011;14238;49.496;8.154;2022-08-23T09:51:01;5.03;;;4.53;;
26594;SDS011;14238;49.496;8.154;2022-08-23T09:53:44;6.67;;;4.90;;
26594;SDS011;14238;49.496;8.154;2022-08-23T09:56:17;4.43;;;4.13;;
26594;SDS011;14238;49.496;8.154;2022-08-23T09:58:48;6.23;;;5.20;;
26594;SDS011;14238;49.496;8.154;2022-08-23T10:06:36;7.27;;;5.30;;
26594;SDS011;14238;49.496;8.154;2022-08-23T10:09:03;5.07;;;4.67;;
26594;SDS011;14238;49.496;8.154;2022-08-23T10:11:33;5.53;;;4.03;;
26594;SDS011;14238;49.496;8.154;2022-08-23T10:14:10;5.40;;;5.00;;
26594;SDS011;14238;49.496;8.154;2022-08-23T10:16:59;5.47;;;5.07;;
26594;SDS011;14238;49.496;8.154;2022-08-23T10:19:51;8.57;;;5.13;;
26594;SDS011;14238;49.496;8.154;2022-08-23T10:22:27;5.00;;;4.50;;
26594;SDS011;14238;49.496;8.154;2022-08-23T10:25:13;4.60;;;4.20;;
26594;SDS011;14238;49.496;8.154;2022-08-23T10:28:01;4.30;;;3.87;;
26594;SDS011;14238;49.496;8.154;2022-08-23T10:34:14;4.80;;;4.50;;
26594;SDS011;14238;49.496;8.154;2022-08-23T10:39:57;5.30;;;4.90;;
26594;SDS011;14238;49.496;8.154;2022-08-23T10:42:39;5.20;;;4.70;;
26594;SDS011;14238;49.496;8.154;2022-08-23T10:45:25;5.17;;;4.80;;
26594;SDS011;14238;49.496;8.154;2022-08-23T10:48:06;4.37;;;4.07;;
26594;SDS011;14238;49.496;8.154;2022-08-23T10:50:40;4.70;;;4.30;;
26594;SDS011;14238;49.496;8.154;2022-08-23T10:53:15;7.07;;;4.60;;
26594;SDS011;14238;49.496;8.154;2022-08-23T10:55:49;4.83;;;4.60;;
26594;SDS011;14238;49.496;8.154;2022-08-23T10:58:27;4.77;;;4.33;;
26594;SDS011;14238;49.496;8.154;2022-08-23T11:01:03;5.07;;;4.63;;
26594;SDS011;14238;49.496;8.154;2022-08-23T11:06:26;4.67;;;4.27;;
26594;SDS011;14238;49.496;8.154;2022-08-23T11:09:04;6.40;;;4.43;;
26594;SDS011;14238;49.496;8.154;2022-08-23T11:14:39;4.70;;;4.40;;
26594;SDS011;14238;49.496;8.154;2022-08-23T11:17:21;3.70;;;3.50;;
26594;SDS011;14238;49.496;8.154;2022-08-23T11:19:57;5.07;;;4.67;;
26594;SDS011;14238;49.496;8.154;2022-08-23T11:22:30;5.40;;;4.90;;
26594;SDS011;14238;49.496;8.154;2022-08-23T11:27:42;4.63;;;4.03;;
26594;SDS011;14238;49.496;8.154;2022-08-23T11:32:56;4.53;;;4.17;;
26594;SDS011;14238;49.496;8.154;2022-08-23T11:35:31;4.50;;;4.20;;
26594;SDS011;14238;49.496;8.154;2022-08-23T11:43:42;4.77;;;4.23;;
26594;SDS011;14238;49.496;8.154;2022-08-23T11:46:33;4.83;;;4.33;;
26594;SDS011;14238;49.496;8.154;2022-08-23T11:51:59;7.70;;;4.50;;
26594;SDS011;14238;49.496;8.154;2022-08-23T12:01:10;5.20;;;4.80;;
26594;SDS011;14238;49.496;8.154;2022-08-23T12:08:52;4.33;;;3.93;;
26594;SDS011;14238;49.496;8.154;2022-08-23T12:11:21;4.60;;;4.30;;
26594;SDS011;14238;49.496;8.154;2022-08-23T12:23:53;4.50;;;3.97;;
26594;SDS011;14238;49.496;8.154;2022-08-23T12:26:25;4.70;;;4.40;;
26594;SDS011;14238;49.496;8.154;2022-08-23T12:28:56;4.43;;;4.10;;
26594;SDS011;14238;49.496;8.154;2022-08-23T12:36:43;3.93;;;3.73;;
26594;SDS011;14238;49.496;8.154;2022-08-23T12:40:06;4.07;;;3.77;;
26594;SDS011;14238;49.496;8.154;2022-08-23T12:42:15;4.03;;;3.73;;
26594;SDS011;14238;49.496;8.154;2022-08-23T12:47:42;4.00;;;3.80;;
26594;SDS011;14238;49.496;8.154;2022-08-23T12:50:40;4.53;;;4.13;;
26594;SDS011;14238;49.496;8.154;2022-08-23T12:53:16;4.43;;;4.10;;
26594;SDS011;14238;49.496;8.154;2022-08-23T12:55:51;4.00;;;3.60;;
26594;SDS011;14238;49.496;8.154;2022-08-23T12:58:29;3.83;;;3.63;;
26594;SDS011;14238;49.496;8.154;2022-08-23T13:00:59;4.20;;;4.00;;
26594;SDS011;14238;49.496;8.154;2022-08-23T13:03:30;3.70;;;3.50;;
26594;SDS011;14238;49.496;8.154;2022-08-23T13:06:11;4.03;;;3.80;;
26594;SDS011;14238;49.496;8.154;2022-08-23T13:11:10;4.13;;;3.83;;
26594;SDS011;14238;49.496;8.154;2022-08-23T13:13:38;4.73;;;4.33;;
26594;SDS011;14238;49.496;8.154;2022-08-23T13:19:13;6.17;;;5.17;;
26594;SDS011;14238;49.496;8.154;2022-08-23T13:22:10;4.40;;;4.00;;
26594;SDS011;14238;49.496;8.154;2022-08-23T13:24:43;4.83;;;4.47;;
26594;SDS011;14238;49.496;8.154;2022-08-23T13:27:26;4.53;;;3.80;;
26594;SDS011;14238;49.496;8.154;2022-08-23T13:32:32;4.30;;;3.77;;
26594;SDS011;14238;49.496;8.154;2022-08-23T13:37:50;3.70;;;3.50;;
26594;SDS011;14238;49.496;8.154;2022-08-23T13:40:21;4.87;;;4.40;;
26594;SDS011;14238;49.496;8.154;2022-08-23T13:42:51;4.27;;;3.97;;
26594;SDS011;14238;49.496;8.154;2022-08-23T13:45:29;3.87;;;3.67;;
26594;SDS011;14238;49.496;8.154;2022-08-23T13:48:01;4.30;;;4.00;;
26594;SDS011;14238;49.496;8.154;2022-08-23T13:50:34;4.10;;;3.80;;
26594;SDS011;14238;49.496;8.154;2022-08-23T13:53:03;3.90;;;3.70;;
26594;SDS011;14238;49.496;8.154;2022-08-23T13:55:29;4.90;;;4.37;;
26594;SDS011;14238;49.496;8.154;2022-08-23T13:57:57;4.13;;;3.73;;
26594;SDS011;14238;49.496;8.154;2022-08-23T14:00:23;3.73;;;3.53;;
26594;SDS011;14238;49.496;8.154;2022-08-23T14:02:50;4.40;;;4.00;;
26594;SDS011;14238;49.496;8.154;2022-08-23T14:05:18;3.53;;;3.33;;
26594;SDS011;14238;49.496;8.154;2022-08-23T14:07:46;4.00;;;3.60;;
26594;SDS011;14238;49.496;8.154;2022-08-23T14:10:17;3.57;;;3.37;;
26594;SDS011;14238;49.496;8.154;2022-08-23T14:12:44;4.23;;;4.03;;
26594;SDS011;14238;49.496;8.154;2022-08-23T14:15:12;4.03;;;3.70;;
26594;SDS011;14238;49.496;8.154;2022-08-23T14:17:39;4.63;;;4.20;;
26594;SDS011;14238;49.496;8.154;2022-08-23T14:20:07;4.40;;;4.00;;
26594;SDS011;14238;49.496;8.154;2022-08-23T14:22:35;3.77;;;3.57;;
26594;SDS011;14238;49.496;8.154;2022-08-23T14:25:00;4.80;;;4.40;;
26594;SDS011;14238;49.496;8.154;2022-08-23T14:27:26;3.50;;;3.30;;
26594;SDS011;14238;49.496;8.154;2022-08-23T14:29:52;3.90;;;3.70;;
26594;SDS011;14238;49.496;8.154;2022-08-23T14:32:17;3.97;;;3.77;;
26594;SDS011;14238;49.496;8.154;2022-08-23T14:34:43;3.27;;;3.07;;
26594;SDS011;14238;49.496;8.154;2022-08-23T14:37:08;4.30;;;3.90;;
26594;SDS011;14238;49.496;8.154;2022-08-23T14:39:34;3.63;;;3.37;;
26594;SDS011;14238;49.496;8.154;2022-08-23T14:41:59;6.40;;;3.97;;
26594;SDS011;14238;49.496;8.154;2022-08-23T14:44:25;3.73;;;3.50;;
26594;SDS011;14238;49.496;8.154;2022-08-23T14:46:51;3.10;;;2.90;;
26594;SDS011;14238;49.496;8.154;2022-08-23T14:49:17;3.10;;;3.00;;
26594;SDS011;14238;49.496;8.154;2022-08-23T14:51:44;4.57;;;3.57;;
26594;SDS011;14238;49.496;8.154;2022-08-23T14:54:13;3.50;;;3.30;;
26594;SDS011;14238;49.496;8.154;2022-08-23T14:56:42;3.77;;;3.50;;
26594;SDS011;14238;49.496;8.154;2022-08-23T14:59:08;3.70;;;3.50;;
26594;SDS011;14238;49.496;8.154;2022-08-23T15:01:33;3.83;;;3.50;;
26594;SDS011;14238;49.496;8.154;2022-08-23T15:03:59;3.13;;;3.03;;
26594;SDS011;14238;49.496;8.154;2022-08-23T15:06:25;6.67;;;3.60;;
26594;SDS011;14238;49.496;8.154;2022-08-23T15:08:51;3.60;;;3.40;;
26594;SDS011;14238;49.496;8.154;2022-08-23T15:11:17;3.90;;;3.60;;
26594;SDS011;14238;49.496;8.154;2022-08-23T15:13:43;3.20;;;3.00;;
26594;SDS011;14238;49.496;8.154;2022-08-23T15:16:10;3.57;;;2.90;;
26594;SDS011;14238;49.496;8.154;2022-08-23T15:18:37;2.97;;;2.80;;
26594;SDS011;14238;49.496;8.154;2022-08-23T15:21:03;3.90;;;3.60;;
26594;SDS011;14238;49.496;8.154;2022-08-23T15:23:29;3.93;;;3.13;;
26594;SDS011;14238;49.496;8.154;2022-08-23T15:25:56;3.40;;;3.03;;
26594;SDS011;14238;49.496;8.154;2022-08-23T15:28:22;6.83;;;3.17;;
26594;SDS011;14238;49.496;8.154;2022-08-23T15:30:48;3.07;;;2.77;;
26594;SDS011;14238;49.496;8.154;2022-08-23T15:33:15;3.73;;;3.53;;
26594;SDS011;14238;49.496;8.154;2022-08-23T15:35:45;3.17;;;2.97;;
26594;SDS011;14238;49.496;8.154;2022-08-23T15:38:14;3.57;;;3.27;;
26594;SDS011;14238;49.496;8.154;2022-08-23T15:40:41;3.07;;;2.77;;
26594;SDS011;14238;49.496;8.154;2022-08-23T15:43:07;3.30;;;3.13;;
26594;SDS011;14238;49.496;8.154;2022-08-23T15:45:33;3.30;;;3.10;;
26594;SDS011;14238;49.496;8.154;2022-08-23T15:47:59;3.23;;;3.03;;
26594;SDS011;14238;49.496;8.154;2022-08-23T15:50:28;3.07;;;2.83;;
26594;SDS011;14238;49.496;8.154;2022-08-23T15:52:57;3.17;;;2.87;;
26594;SDS011;14238;49.496;8.154;2022-08-23T15:55:24;4.73;;;3.70;;
26594;SDS011;14238;49.496;8.154;2022-08-23T15:57:53;3.67;;;3.37;;
26594;SDS011;14238;49.496;8.154;2022-08-23T16:00:22;6.07;;;3.33;;
26594;SDS011;14238;49.496;8.154;2022-08-23T16:02:48;9.47;;;4.33;;
26594;SDS011;14238;49.496;8.154;2022-08-23T16:05:14;3.10;;;2.90;;
26594;SDS011;14238;49.496;8.154;2022-08-23T16:07:40;3.10;;;2.90;;
26594;SDS011;14238;49.496;8.154;2022-08-23T16:10:06;3.87;;;3.00;;
26594;SDS011;14238;49.496;8.154;2022-08-23T16:12:35;4.07;;;3.70;;
26594;SDS011;14238;49.496;8.154;2022-08-23T16:15:00;3.13;;;2.93;;
26594;SDS011;14238;49.496;8.154;2022-08-23T16:17:27;5.10;;;3.53;;
26594;SDS011;14238;49.496;8.154;2022-08-23T16:19:53;3.30;;;3.00;;
26594;SDS011;14238;49.496;8.154;2022-08-23T16:22:19;3.57;;;3.30;;
26594;SDS011;14238;49.496;8.154;2022-08-23T16:24:44;3.50;;;3.27;;
26594;SDS011;14238;49.496;8.154;2022-08-23T16:27:10;3.17;;;3.07;;
26594;SDS011;14238;49.496;8.154;2022-08-23T16:29:35;3.90;;;3.60;;
26594;SDS011;14238;49.496;8.154;2022-08-23T16:32:04;3.30;;;3.10;;
26594;SDS011;14238;49.496;8.154;2022-08-23T16:34:30;3.57;;;3.37;;
26594;SDS011;14238;49.496;8.154;2022-08-23T16:36:57;4.37;;;3.60;;